EmailTwitter


Surface observations / United Kingdom / EGLL (03772)

Regions: Quebec | Canada | USA | Europe | France | UK | Elsewhere
Station
Display
Info & Location for EGLL (03772) | Help decoding METAR

Weather Conditions observed on 2018/12/12 at 12:50 UTC at LONDON/HEATHROW, UK (EGLL)

Sky conditions: overcast.

Temperature: 7.0 Celsius.

Dewpoint: 3.0 Celsius.

Relative Humidity: 76%

Windchill Factor: 4.

Winds: Southeast at 19 km/h or 10 knots.

Mean Sea level Pressure: 102.20 kilopascals.

Horizontal visibility: 6.21 statute miles or 9.94 kilometers.

Height of the Ceiling: 853 metres ( 2800 feet ).

Coded METAR:

EGLL 121250Z AUTO 14010KT 9999 BKN028 OVC041 07/03 Q1022 NOSIG=